Time;durP1;ratioP1;P1;durP2;ratioP2;P2;SDS_P1;SDS_P2;PMS_P1;PMS_P2;Temp;Humidity;BMP_temperature;BMP_pressure;BME280_temperature;BME280_humidity;BME280_pressure;Samples;Min_cycle;Max_cycle;Signal;HPM_P1;HPM_P2
2021/07/27 00:00:18;;;;;;;;;;;;;;;23.71;60.73;99409.25;1892828;76;20204;-63
2021/07/27 00:02:54;;;;;;;;;;;;;;;23.68;60.87;99406.73;1873303;76;20097;-63
2021/07/27 00:05:30;;;;;;;;;;;;;;;23.71;60.86;99411.89;1873609;76;20200;-63
2021/07/27 00:08:23;;;;;;;;;;;;;;;23.66;60.94;99412.52;1873434;76;20208;-63
2021/07/27 00:11:10;;;;;;;;;;;;;;;23.59;61.43;99406.16;1892764;76;20212;-63
2021/07/27 00:13:44;;;;;;;;;;;;;;;23.53;61.65;99394.95;1892803;76;20183;-63
2021/07/27 00:16:40;;;;;;;;;;;;;;;23.47;61.89;99399.14;1873222;76;20101;-64
2021/07/27 00:19:34;;;;;;;;;;;;;;;23.42;61.61;99397.97;1873439;76;20461;-64
2021/07/27 00:22:27;;;;;;;;;;;;;;;23.44;61.76;99390.88;1873558;76;20204;-63
2021/07/27 00:25:02;;;;;;;;;;;;;;;23.47;61.56;99389.45;1873481;76;20204;-63
2021/07/27 00:27:56;;;;;;;;;;;;;;;23.52;61.50;99391.47;1873298;76;20102;-65
2021/07/27 00:30:31;;;;;;;;;;;;;;;23.54;61.09;99392.28;1873477;76;20216;-63
2021/07/27 00:33:06;;;;;;;;;;;;;;;23.52;61.36;99385.34;1837827;77;20096;-64
2021/07/27 00:35:41;;;;;;;;;;;;;;;23.48;61.36;99381.09;1873436;76;20093;-65
2021/07/27 00:38:36;;;;;;;;;;;;;;;23.48;61.43;99387.67;1873426;76;20097;-62
2021/07/27 00:41:10;;;;;;;;;;;;;;;23.47;61.31;99384.65;1873505;76;20208;-62
2021/07/27 00:43:45;;;;;;;;;;;;;;;23.46;61.56;99382.48;1892804;76;20342;-63
2021/07/27 00:46:20;;;;;;;;;;;;;;;23.43;61.85;99382.56;1873492;76;20204;-62
2021/07/27 00:48:54;;;;;;;;;;;;;;;23.37;61.91;99391.54;1873449;76;20094;-62
2021/07/27 00:51:29;;;;;;;;;;;;;;;23.33;62.25;99389.95;1873470;76;20216;-64
2021/07/27 00:54:06;;;;;;;;;;;;;;;23.29;62.20;99382.20;1873474;76;20098;-62
2021/07/27 00:57:01;;;;;;;;;;;;;;;23.26;62.32;99380.99;1873182;76;20102;-62
2021/07/27 00:59:35;;;;;;;;;;;;;;;23.22;62.54;99384.16;1873567;76;20208;-62
2021/07/27 01:02:10;;;;;;;;;;;;;;;23.16;62.76;99380.44;1873482;76;20204;-63
2021/07/27 01:04:44;;;;;;;;;;;;;;;23.14;62.65;99372.58;1892785;76;20203;-62
2021/07/27 01:07:21;;;;;;;;;;;;;;;23.13;62.61;99381.41;1892805;76;20442;-63
2021/07/27 01:09:55;;;;;;;;;;;;;;;23.13;62.50;99384.03;1873476;76;20213;-63
2021/07/27 01:12:49;;;;;;;;;;;;;;;23.13;62.65;99374.82;1892745;76;20208;-63
2021/07/27 01:15:25;;;;;;;;;;;;;;;23.12;62.53;99377.03;1892747;76;20101;-63
2021/07/27 01:18:04;;;;;;;;;;;;;;;23.11;62.64;99375.32;1873505;76;20208;-63
2021/07/27 01:44:19;;;;;;;;;;;;;;;23.14;62.78;99366.46;1873210;76;20101;-63
2021/07/27 01:46:54;;;;;;;;;;;;;;;23.10;62.87;99375.36;1873302;76;20101;-62
2021/07/27 01:49:36;;;;;;;;;;;;;;;23.12;62.67;99371.77;1893003;76;20223;-63
2021/07/27 01:52:15;;;;;;;;;;;;;;;23.09;62.88;99369.24;1873489;76;20201;-62
2021/07/27 01:55:11;;;;;;;;;;;;;;;23.06;63.11;99364.09;1873290;76;20098;-62
2021/07/27 01:57:47;;;;;;;;;;;;;;;23.01;63.14;99368.64;1873306;76;20101;-63
2021/07/27 02:00:21;;;;;;;;;;;;;;;23.01;63.13;99369.11;1892784;76;20347;-63
2021/07/27 02:03:25;;;;;;;;;;;;;;;22.99;63.16;99367.83;1872580;76;20359;-63
2021/07/27 02:06:00;;;;;;;;;;;;;;;22.98;63.15;99374.02;1873400;76;20093;-63
2021/07/27 02:08:35;;;;;;;;;;;;;;;22.97;63.20;99369.64;1873517;76;20208;-62
2021/07/27 02:11:13;;;;;;;;;;;;;;;22.94;63.11;99366.63;1873487;76;20097;-65
2021/07/27 02:13:50;;;;;;;;;;;;;;;22.94;62.94;99369.27;1873531;76;20093;-63
2021/07/27 02:16:25;;;;;;;;;;;;;;;22.93;63.05;99366.23;1873436;76;20097;-63
2021/07/27 02:19:18;;;;;;;;;;;;;;;22.91;62.68;99361.94;1892729;76;20097;-64
2021/07/27 02:21:53;;;;;;;;;;;;;;;22.96;62.53;99370.54;1873502;76;20204;-63
2021/07/27 02:24:27;;;;;;;;;;;;;;;22.99;62.34;99363.88;1873500;76;20212;-63
2021/07/27 02:27:03;;;;;;;;;;;;;;;22.99;62.24;99363.03;1873406;76;20097;-63
2021/07/27 02:29:38;;;;;;;;;;;;;;;22.98;61.89;99360.86;1873344;76;20204;-62
2021/07/27 02:32:13;;;;;;;;;;;;;;;23.01;62.17;99350.22;1892793;76;20207;-63
2021/07/27 02:34:47;;;;;;;;;;;;;;;23.03;62.00;99358.94;1873396;76;20101;-62
2021/07/27 02:37:22;;;;;;;;;;;;;;;23.04;61.62;99355.38;1892809;76;20208;-63
2021/07/27 02:39:58;;;;;;;;;;;;;;;23.06;61.89;99362.77;1873281;76;20208;-61
2021/07/27 02:42:52;;;;;;;;;;;;;;;23.05;61.58;99361.06;1873424;76;20204;-63
2021/07/27 02:45:26;;;;;;;;;;;;;;;23.05;61.48;99365.02;1873605;76;20212;-63
2021/07/27 02:48:03;;;;;;;;;;;;;;;23.04;61.49;99358.00;1892909;76;20207;-63
2021/07/27 02:50:41;;;;;;;;;;;;;;;23.06;61.28;99361.45;1873467;76;20098;-63
2021/07/27 02:53:16;;;;;;;;;;;;;;;23.05;61.13;99367.64;1892907;76;20207;-62
2021/07/27 02:56:15;;;;;;;;;;;;;;;23.04;61.42;99358.47;1873480;76;20212;-63
2021/07/27 02:58:51;;;;;;;;;;;;;;;23.06;61.05;99355.34;1892764;76;20096;-64
2021/07/27 03:01:27;;;;;;;;;;;;;;;23.10;60.52;99355.19;1873295;76;20204;-63
2021/07/27 03:04:01;;;;;;;;;;;;;;;23.14;60.47;99354.61;1873491;76;20094;-63
2021/07/27 03:06:36;;;;;;;;;;;;;;;23.13;60.31;99357.70;1873492;76;20295;-64
2021/07/27 03:09:15;;;;;;;;;;;;;;;23.11;60.38;99347.67;1873506;76;20208;-62
2021/07/27 03:11:50;;;;;;;;;;;;;;;23.12;60.51;99357.75;1873393;76;20204;-63
2021/07/27 03:14:44;;;;;;;;;;;;;;;23.12;59.55;99346.75;1892821;76;20096;-62
2021/07/27 03:17:19;;;;;;;;;;;;;;;23.15;59.17;99357.63;1892770;76;20096;-63
2021/07/27 03:19:54;;;;;;;;;;;;;;;23.19;59.14;99363.22;1873462;76;20101;-62
2021/07/27 03:22:28;;;;;;;;;;;;;;;23.20;59.22;99366.23;1892911;76;20175;-63
2021/07/27 03:25:05;;;;;;;;;;;;;;;23.21;59.22;99361.86;1873443;76;20208;-64
2021/07/27 03:27:40;;;;;;;;;;;;;;;23.22;58.54;99367.52;1892788;76;20355;-62
2021/07/27 03:30:21;;;;;;;;;;;;;;;23.21;58.97;99363.17;1872546;76;20093;-62
2021/07/27 03:33:15;;;;;;;;;;;;;;;23.19;58.81;99370.65;1873522;76;20172;-63
2021/07/27 03:35:50;;;;;;;;;;;;;;;23.16;59.25;99360.23;1892772;76;20371;-64
2021/07/27 03:38:24;;;;;;;;;;;;;;;23.14;59.27;99360.73;1873487;76;20355;-62
2021/07/27 03:41:02;;;;;;;;;;;;;;;23.13;58.47;99349.81;1873497;76;20355;-63
2021/07/27 03:43:38;;;;;;;;;;;;;;;23.14;59.27;99354.15;1873484;76;20208;-63
2021/07/27 03:46:48;;;;;;;;;;;;;;;23.15;58.92;99361.16;1892752;76;20092;-62
2021/07/27 03:49:22;;;;;;;;;;;;;;;23.18;59.07;99360.19;1892784;76;20446;-63
2021/07/27 03:52:01;;;;;;;;;;;;;;;23.17;59.28;99355.81;1873435;76;20462;-64
2021/07/27 03:54:56;;;;;;;;;;;;;;;23.18;59.21;99361.05;1873258;76;20101;-64
2021/07/27 03:57:32;;;;;;;;;;;;;;;23.18;59.20;99357.56;1873276;76;20355;-62
2021/07/27 04:00:07;;;;;;;;;;;;;;;23.19;59.31;99360.58;1892721;76;20207;-65
2021/07/27 04:02:43;;;;;;;;;;;;;;;23.19;59.33;99352.22;1892750;76;20216;-62
2021/07/27 04:05:18;;;;;;;;;;;;;;;23.21;59.65;99355.27;1873484;76;20208;-63
2021/07/27 04:07:58;;;;;;;;;;;;;;;23.17;59.88;99348.77;1892855;76;20354;-63
2021/07/27 04:10:33;;;;;;;;;;;;;;;23.16;59.88;99348.38;1873482;76;20462;-66
2021/07/27 04:13:08;;;;;;;;;;;;;;;23.18;60.28;99353.14;1873519;76;20450;-63
2021/07/27 04:15:43;;;;;;;;;;;;;;;23.18;59.76;99349.66;1873220;76;20192;-65
2021/07/27 04:18:19;;;;;;;;;;;;;;;23.19;60.76;99346.09;1873270;76;20140;-64
2021/07/27 04:20:56;;;;;;;;;;;;;;;23.19;60.58;99341.69;1873560;76;20212;-64
2021/07/27 04:23:32;;;;;;;;;;;;;;;23.22;60.24;99345.13;1873366;76;20094;-63
2021/07/27 04:26:28;;;;;;;;;;;;;;;23.27;60.56;99345.83;1873396;76;20212;-65
2021/07/27 04:29:02;;;;;;;;;;;;;;;23.33;59.83;99345.17;1892759;76;20097;-65
2021/07/27 04:31:42;;;;;;;;;;;;;;;23.39;59.84;99341.45;1892779;76;20207;-63
2021/07/27 04:34:37;;;;;;;;;;;;;;;23.49;59.85;99336.73;1873381;76;20208;-64
2021/07/27 04:37:12;;;;;;;;;;;;;;;23.60;58.69;99338.03;1873402;76;20098;-64
2021/07/27 04:40:07;;;;;;;;;;;;;;;23.69;58.93;99340.81;1867627;75;20370;-64
2021/07/27 04:42:42;;;;;;;;;;;;;;;23.75;58.29;99339.29;1873470;76;20097;-64
2021/07/27 04:45:41;;;;;;;;;;;;;;;23.85;59.18;99343.77;1872545;76;20216;-65
2021/07/27 04:48:37;;;;;;;;;;;;;;;23.92;58.46;99344.41;1873409;76;20204;-63
2021/07/27 04:51:11;;;;;;;;;;;;;;;23.97;58.13;99343.31;1892776;76;20204;-64
2021/07/27 04:54:12;;;;;;;;;;;;;;;24.02;56.95;99333.92;1873255;76;20217;-65
2021/07/27 04:56:44;;;;;;;;;;;;;;;24.15;56.64;99336.94;1873272;76;20354;-61
2021/07/27 04:59:38;;;;;;;;;;;;;;;24.27;56.85;99332.48;1873374;76;20462;-63
2021/07/27 05:02:14;;;;;;;;;;;;;;;24.36;56.85;99342.68;1873250;76;20344;-65
2021/07/27 05:04:51;;;;;;;;;;;;;;;24.47;57.11;99347.13;1873454;76;20208;-65
2021/07/27 05:07:26;;;;;;;;;;;;;;;24.55;56.22;99344.61;1873478;76;20101;-64
2021/07/27 05:10:04;;;;;;;;;;;;;;;24.64;55.88;99349.53;1873223;76;20102;-62
2021/07/27 05:12:40;;;;;;;;;;;;;;;24.74;55.12;99345.59;1873227;76;20093;-64
2021/07/27 05:15:15;;;;;;;;;;;;;;;24.85;55.75;99340.72;1873473;76;20212;-63
2021/07/27 05:18:02;;;;;;;;;;;;;;;24.95;55.69;99340.34;1873394;76;20204;-63
2021/07/27 05:20:37;;;;;;;;;;;;;;;25.00;55.59;99342.34;1873333;76;20347;-64
2021/07/27 05:23:31;;;;;;;;;;;;;;;25.07;55.15;99342.02;1873369;76;20097;-64
2021/07/27 05:26:06;;;;;;;;;;;;;;;25.16;55.04;99344.74;1892761;76;20093;-64
2021/07/27 05:29:02;;;;;;;;;;;;;;;25.22;54.91;99343.17;1873268;76;20101;-63
2021/07/27 05:31:38;;;;;;;;;;;;;;;25.27;54.50;99347.80;1892744;76;20355;-64
2021/07/27 05:34:13;;;;;;;;;;;;;;;25.37;53.80;99341.66;1892740;76;20100;-63
2021/07/27 05:36:49;;;;;;;;;;;;;;;25.49;53.83;99352.13;1892819;76;20203;-65
2021/07/27 05:39:43;;;;;;;;;;;;;;;25.69;53.31;99341.53;1892718;76;20212;-65
2021/07/27 05:42:38;;;;;;;;;;;;;;;25.94;52.79;99349.71;1873128;76;20102;-64
2021/07/27 05:45:13;;;;;;;;;;;;;;;26.93;50.85;99346.75;1892766;76;20211;-63
2021/07/27 05:48:06;;;;;;;;;;;;;;;28.23;47.00;99354.98;1873450;76;20212;-64
2021/07/27 05:50:41;;;;;;;;;;;;;;;28.93;45.32;99353.28;1873460;76;20466;-64
2021/07/27 05:53:15;;;;;;;;;;;;;;;30.01;43.45;99358.31;1892765;76;20351;-64
2021/07/27 05:55:51;;;;;;;;;;;;;;;30.99;41.59;99364.44;1873288;76;20102;-64
2021/07/27 05:58:25;;;;;;;;;;;;;;;31.51;40.18;99363.61;1873450;76;20303;-65
2021/07/27 06:01:21;;;;;;;;;;;;;;;32.17;39.23;99370.50;1872301;75;20156;-64
2021/07/27 06:03:55;;;;;;;;;;;;;;;32.70;38.09;99368.92;1853600;77;20210;-65
2021/07/27 06:06:31;;;;;;;;;;;;;;;33.09;36.77;99374.94;1892878;76;20097;-65
2021/07/27 06:09:07;;;;;;;;;;;;;;;32.82;37.01;99376.48;1892783;76;20101;-65
2021/07/27 06:11:42;;;;;;;;;;;;;;;33.08;36.89;99374.09;1873379;76;20097;-66
2021/07/27 06:14:23;;;;;;;;;;;;;;;33.39;36.39;99376.25;1872599;76;20209;-66
2021/07/27 06:17:00;;;;;;;;;;;;;;;33.39;36.51;99382.45;1873461;76;20098;-64
2021/07/27 06:19:34;;;;;;;;;;;;;;;33.47;36.49;99386.71;1873454;76;20220;-65
2021/07/27 06:22:17;;;;;;;;;;;;;;;33.58;36.13;99382.38;1892715;76;20235;-64
2021/07/27 06:24:54;;;;;;;;;;;;;;;33.79;35.47;99379.38;1892773;76;20097;-64
2021/07/27 06:27:29;;;;;;;;;;;;;;;34.59;34.43;99385.06;1873477;76;20422;-66
2021/07/27 06:30:07;;;;;;;;;;;;;;;35.09;33.45;99385.41;1892801;76;20100;-64
2021/07/27 06:32:41;;;;;;;;;;;;;;;35.17;33.22;99384.27;1873539;76;20101;-63
2021/07/27 06:35:16;;;;;;;;;;;;;;;35.28;31.23;99398.59;1873381;76;20151;-64
2021/07/27 06:37:51;;;;;;;;;;;;;;;34.83;32.48;99387.53;1892743;76;20096;-65
2021/07/27 06:40:25;;;;;;;;;;;;;;;35.51;31.68;99388.08;1873384;76;20212;-64
2021/07/27 06:43:00;;;;;;;;;;;;;;;36.38;30.81;99398.41;1892855;76;20469;-63
2021/07/27 06:45:34;;;;;;;;;;;;;;;36.68;29.91;99393.98;1873427;76;20359;-64
2021/07/27 06:48:13;;;;;;;;;;;;;;;36.89;29.48;99400.10;1892807;76;20093;-65
2021/07/27 06:51:09;;;;;;;;;;;;;;;36.43;29.86;99392.13;1873396;76;20101;-64
2021/07/27 06:53:44;;;;;;;;;;;;;;;36.58;30.04;99398.49;1873458;76;20258;-65
2021/07/27 06:56:39;;;;;;;;;;;;;;;36.89;28.49;99379.05;1873435;76;20204;-65
2021/07/27 06:59:13;;;;;;;;;;;;;;;37.23;27.74;99409.61;1873451;76;20205;-64
2021/07/27 07:01:49;;;;;;;;;;;;;;;37.45;27.73;99409.27;1873442;76;20102;-64
2021/07/27 07:04:24;;;;;;;;;;;;;;;37.37;27.42;99418.07;1873381;76;20093;-64
2021/07/27 07:06:59;;;;;;;;;;;;;;;37.21;27.89;99405.70;1873456;76;20344;-63
2021/07/27 07:09:36;;;;;;;;;;;;;;;37.52;26.78;99408.24;1892763;76;20203;-63
2021/07/27 07:12:13;;;;;;;;;;;;;;;37.60;26.73;99406.17;1892863;76;20208;-64
2021/07/27 07:14:47;;;;;;;;;;;;;;;36.80;27.86;99396.05;1892839;76;20101;-65
2021/07/27 07:17:23;;;;;;;;;;;;;;;36.76;27.98;99412.11;1873370;76;20101;-64
2021/07/27 07:19:59;;;;;;;;;;;;;;;36.96;28.34;99410.28;1873268;76;20208;-62
2021/07/27 07:22:35;;;;;;;;;;;;;;;36.81;28.29;99396.39;1892858;76;20092;-65
2021/07/27 07:25:10;;;;;;;;;;;;;;;37.42;27.28;99400.65;1873386;76;20094;-67
2021/07/27 07:27:44;;;;;;;;;;;;;;;38.13;26.42;99383.52;1873445;76;20212;-65
2021/07/27 07:30:40;;;;;;;;;;;;;;;37.53;26.80;99379.83;1892721;76;20354;-65
2021/07/27 07:33:15;;;;;;;;;;;;;;;37.55;27.05;99393.13;1892755;76;20096;-65
2021/07/27 07:35:50;;;;;;;;;;;;;;;37.48;27.18;99397.36;1873434;76;20212;-65
2021/07/27 07:38:30;;;;;;;;;;;;;;;37.62;26.87;99405.03;1872586;76;20219;-63
2021/07/27 07:41:09;;;;;;;;;;;;;;;36.49;28.46;99397.47;1873442;76;20268;-64
2021/07/27 07:43:44;;;;;;;;;;;;;;;35.75;29.81;99382.47;1892765;76;20207;-66
2021/07/27 07:46:44;;;;;;;;;;;;;;;35.49;30.26;99385.17;1872457;76;20354;-64
2021/07/27 07:49:19;;;;;;;;;;;;;;;35.77;30.45;99378.28;1892746;76;20203;-66
2021/07/27 07:51:56;;;;;;;;;;;;;;;36.27;29.41;99380.56;1873417;76;20458;-65
2021/07/27 07:54:31;;;;;;;;;;;;;;;36.90;28.94;99393.72;1873419;76;20454;-65
2021/07/27 07:57:06;;;;;;;;;;;;;;;37.04;27.97;99379.00;1892758;76;20089;-66
2021/07/27 08:00:02;;;;;;;;;;;;;;;37.31;27.22;99380.97;1873155;76;20101;-66
2021/07/27 08:02:37;;;;;;;;;;;;;;;37.83;26.73;99383.27;1873524;76;20204;-65
2021/07/27 08:05:13;;;;;;;;;;;;;;;38.13;26.05;99405.08;1853576;77;20103;-64
2021/07/27 08:07:47;;;;;;;;;;;;;;;36.55;27.74;99391.52;1873480;76;20208;-65
2021/07/27 08:10:22;;;;;;;;;;;;;;;35.30;29.69;99392.62;1873445;76;20200;-66
2021/07/27 08:12:57;;;;;;;;;;;;;;;35.76;29.49;99379.28;1873422;76;20204;-63
2021/07/27 08:15:31;;;;;;;;;;;;;;;36.11;28.83;99382.09;1873437;76;20343;-62
2021/07/27 08:18:05;;;;;;;;;;;;;;;36.56;28.31;99389.71;1873426;76;20215;-64
2021/07/27 08:20:40;;;;;;;;;;;;;;;36.78;28.00;99400.22;1892759;76;20203;-63
2021/07/27 08:23:14;;;;;;;;;;;;;;;36.34;28.91;99370.13;1873426;76;20451;-65
2021/07/27 08:25:48;;;;;;;;;;;;;;;35.68;29.88;99399.25;1873449;76;20343;-64
2021/07/27 08:28:23;;;;;;;;;;;;;;;35.63;30.88;99387.55;1873445;76;20213;-64
2021/07/27 08:30:57;;;;;;;;;;;;;;;35.76;29.66;99387.34;1873448;76;20208;-65
2021/07/27 08:33:32;;;;;;;;;;;;;;;35.18;29.61;99377.91;1892775;76;20093;-64
2021/07/27 08:36:07;;;;;;;;;;;;;;;34.89;30.47;99368.77;1892855;76;20093;-64
2021/07/27 08:39:01;;;;;;;;;;;;;;;34.56;30.43;99363.84;1873537;76;20208;-63
2021/07/27 08:41:38;;;;;;;;;;;;;;;34.46;30.45;99337.44;1892746;76;20454;-64
2021/07/27 08:44:18;;;;;;;;;;;;;;;34.31;30.61;99371.20;1873474;76;20097;-64
2021/07/27 08:46:53;;;;;;;;;;;;;;;34.26;30.69;99373.41;1873503;76;20101;-64
2021/07/27 08:49:31;;;;;;;;;;;;;;;34.56;30.96;99349.95;1873512;76;20212;-64
2021/07/27 08:52:05;;;;;;;;;;;;;;;35.10;29.57;99359.42;1873442;76;20219;-67
2021/07/27 08:54:43;;;;;;;;;;;;;;;35.41;29.41;99360.33;1873520;76;20208;-63
2021/07/27 08:57:18;;;;;;;;;;;;;;;36.14;28.45;99363.00;1892691;76;20215;-64
2021/07/27 08:59:53;;;;;;;;;;;;;;;36.50;28.11;99348.07;1873458;76;20356;-64
2021/07/27 09:02:30;;;;;;;;;;;;;;;36.67;28.13;99357.33;1873271;76;20101;-64
2021/07/27 09:05:08;;;;;;;;;;;;;;;36.67;28.44;99362.71;1873450;76;20098;-65
2021/07/27 09:08:04;;;;;;;;;;;;;;;36.56;28.44;99358.28;1873443;76;20212;-64
2021/07/27 09:10:40;;;;;;;;;;;;;;;35.76;28.31;99355.11;1892751;76;20215;-63
2021/07/27 09:13:17;;;;;;;;;;;;;;;34.67;29.87;99353.11;1873466;76;20098;-65
2021/07/27 09:15:56;;;;;;;;;;;;;;;34.06;31.29;99348.68;1873459;76;20212;-64
2021/07/27 09:18:30;;;;;;;;;;;;;;;33.36;31.58;99337.20;1873535;76;20208;-65
2021/07/27 09:21:05;;;;;;;;;;;;;;;32.99;32.79;99335.97;1873551;76;20097;-65
2021/07/27 09:23:41;;;;;;;;;;;;;;;33.06;33.24;99339.92;1873475;76;20208;-64
2021/07/27 09:26:16;;;;;;;;;;;;;;;32.85;32.70;99350.40;1873451;76;20462;-64
2021/07/27 09:29:05;;;;;;;;;;;;;;;32.49;33.87;99329.95;1873279;76;20348;-64
2021/07/27 09:31:51;;;;;;;;;;;;;;;31.76;34.78;99340.91;1892604;76;20378;-66
2021/07/27 09:34:29;;;;;;;;;;;;;;;31.49;35.68;99345.02;1892724;76;20100;-64
2021/07/27 09:37:06;;;;;;;;;;;;;;;31.28;36.30;99333.16;1837826;77;20211;-64
2021/07/27 09:40:05;;;;;;;;;;;;;;;31.10;35.96;99322.78;1892759;76;20354;-63
2021/07/27 09:43:00;;;;;;;;;;;;;;;30.85;36.87;99324.07;1892759;76;20453;-64
2021/07/27 09:45:35;;;;;;;;;;;;;;;30.71;37.95;99312.98;1873378;76;20101;-67
2021/07/27 09:48:11;;;;;;;;;;;;;;;30.70;37.91;99316.59;1873298;76;20208;-65
2021/07/27 09:50:49;;;;;;;;;;;;;;;30.83;37.59;99309.50;1892868;76;20445;-64
2021/07/27 09:53:25;;;;;;;;;;;;;;;30.91;37.18;99315.20;1873221;76;20363;-64
2021/07/27 09:56:01;;;;;;;;;;;;;;;30.98;37.38;99306.77;1873453;76;20462;-64
2021/07/27 09:58:37;;;;;;;;;;;;;;;30.88;36.07;99296.72;1873354;76;20136;-64
2021/07/27 10:01:32;;;;;;;;;;;;;;;30.77;37.10;99301.91;1892758;76;20101;-64
2021/07/27 10:04:06;;;;;;;;;;;;;;;30.76;37.59;99320.19;1873431;76;20208;-63
2021/07/27 10:07:00;;;;;;;;;;;;;;;30.63;37.10;99296.62;1880637;76;20274;-64
2021/07/27 10:09:58;;;;;;;;;;;;;;;30.32;37.25;99284.01;1875294;75;20243;-64
2021/07/27 10:12:35;;;;;;;;;;;;;;;30.25;37.39;99278.70;1873446;76;20101;-65
2021/07/27 10:15:33;;;;;;;;;;;;;;;30.15;37.26;99281.55;1873290;76;20098;-65
2021/07/27 10:18:10;;;;;;;;;;;;;;;30.18;37.59;99294.69;1892691;76;20358;-63
2021/07/27 10:20:45;;;;;;;;;;;;;;;30.27;38.08;99315.41;1892766;76;20096;-64
2021/07/27 10:23:20;;;;;;;;;;;;;;;30.28;38.24;99274.53;1873340;76;20101;-65
2021/07/27 10:25:57;;;;;;;;;;;;;;;30.38;37.95;99295.61;1892786;76;20093;-65
2021/07/27 10:28:55;;;;;;;;;;;;;;;30.53;37.84;99299.05;1873366;76;20102;-63
2021/07/27 10:31:44;;;;;;;;;;;;;;;30.54;37.41;99302.59;1873459;76;20204;-64
2021/07/27 10:34:41;;;;;;;;;;;;;;;30.45;37.54;99274.25;1873394;76;20359;-65
2021/07/27 10:37:37;;;;;;;;;;;;;;;30.48;38.33;99298.05;1873436;76;20462;-64
2021/07/27 10:40:12;;;;;;;;;;;;;;;30.67;37.68;99294.15;1873452;76;20208;-65
2021/07/27 10:43:24;;;;;;;;;;;;;;;30.87;37.10;99283.52;1872496;76;20101;-65
2021/07/27 10:46:21;;;;;;;;;;;;;;;30.95;37.32;99290.99;1873341;76;20359;-65
2021/07/27 10:48:57;;;;;;;;;;;;;;;30.99;37.38;99288.02;1892717;76;20101;-66
2021/07/27 10:51:36;;;;;;;;;;;;;;;31.09;37.57;99274.44;1892720;76;20204;-64
2021/07/27 10:54:12;;;;;;;;;;;;;;;31.31;36.39;99282.27;1873385;76;20208;-65
2021/07/27 10:57:07;;;;;;;;;;;;;;;31.50;35.63;99276.05;1873383;76;20192;-65
2021/07/27 10:59:45;;;;;;;;;;;;;;;31.58;36.35;99284.84;1873422;76;20367;-65
2021/07/27 11:02:22;;;;;;;;;;;;;;;31.53;36.88;99292.33;1892763;76;20200;-65
2021/07/27 11:04:58;;;;;;;;;;;;;;;31.55;35.51;99279.73;1873306;76;20093;-65
2021/07/27 11:07:52;;;;;;;;;;;;;;;31.57;35.70;99225.77;1873319;76;20101;-64
2021/07/27 11:10:27;;;;;;;;;;;;;;;31.55;34.57;99253.06;1873458;76;20204;-65
2021/07/27 11:13:02;;;;;;;;;;;;;;;31.41;34.88;99273.17;1873389;76;20628;-64
2021/07/27 11:15:39;;;;;;;;;;;;;;;31.35;34.40;99220.61;1873354;76;20212;-65
2021/07/27 11:18:32;;;;;;;;;;;;;;;31.24;34.88;99276.49;1873416;76;20314;-65
2021/07/27 11:21:09;;;;;;;;;;;;;;;31.23;34.75;99280.62;1873479;76;20208;-65
2021/07/27 11:23:43;;;;;;;;;;;;;;;31.18;34.82;99268.93;1873497;76;20212;-63
2021/07/27 11:26:37;;;;;;;;;;;;;;;30.91;36.73;99280.55;1873313;76;20097;-65
2021/07/27 11:29:31;;;;;;;;;;;;;;;30.81;37.00;99272.77;1892732;76;20097;-65
2021/07/27 11:34:53;;;;;;;;;;;;;;;30.78;36.08;99266.29;1873452;76;20458;-65
2021/07/27 11:37:28;;;;;;;;;;;;;;;30.89;36.23;99266.95;1873356;76;20151;-63
2021/07/27 11:40:03;;;;;;;;;;;;;;;30.91;35.67;99267.67;1873477;76;20204;-64
2021/07/27 11:42:39;;;;;;;;;;;;;;;30.95;36.08;99245.68;1873350;76;20094;-64
2021/07/27 11:45:34;;;;;;;;;;;;;;;31.02;35.94;99283.80;1873415;76;20212;-64
2021/07/27 11:48:11;;;;;;;;;;;;;;;31.01;36.29;99269.23;1892742;76;20100;-65
2021/07/27 11:50:49;;;;;;;;;;;;;;;31.13;36.61;99261.73;1892799;76;20215;-64
2021/07/27 11:53:24;;;;;;;;;;;;;;;31.38;36.88;99269.37;1892862;76;20105;-64
2021/07/27 11:56:14;;;;;;;;;;;;;;;31.35;35.84;99222.42;1873330;76;20131;-64
2021/07/27 11:59:06;;;;;;;;;;;;;;;31.29;36.48;99254.36;1873409;76;20204;-64
2021/07/27 12:01:42;;;;;;;;;;;;;;;31.31;36.39;99248.44;1873368;76;20098;-64
2021/07/27 12:04:35;;;;;;;;;;;;;;;31.28;36.08;99234.48;1892727;76;20350;-63
2021/07/27 12:07:31;;;;;;;;;;;;;;;31.42;35.63;99260.20;1873172;76;20101;-64
2021/07/27 12:10:08;;;;;;;;;;;;;;;31.20;36.53;99240.84;1892775;76;20215;-66
2021/07/27 12:12:44;;;;;;;;;;;;;;;31.19;36.72;99235.96;1873330;76;20097;-63
2021/07/27 12:15:37;;;;;;;;;;;;;;;31.29;36.43;99220.17;1873494;76;20462;-66
2021/07/27 12:18:11;;;;;;;;;;;;;;;31.48;36.44;99238.45;1873450;76;20459;-64
2021/07/27 12:20:47;;;;;;;;;;;;;;;31.59;36.06;99238.52;1873335;76;20101;-64
2021/07/27 12:23:21;;;;;;;;;;;;;;;31.56;36.13;99242.75;1892773;76;20199;-67
2021/07/27 12:25:56;;;;;;;;;;;;;;;31.56;36.07;99240.08;1892741;76;20219;-65
2021/07/27 12:28:31;;;;;;;;;;;;;;;31.36;36.59;99226.78;1892747;76;20441;-65
2021/07/27 12:31:07;;;;;;;;;;;;;;;31.18;36.44;99220.09;1873336;76;20097;-64
2021/07/27 12:33:42;;;;;;;;;;;;;;;31.04;37.31;99214.38;1873385;76;20093;-64
2021/07/27 12:36:18;;;;;;;;;;;;;;;31.04;37.02;99211.25;1873331;76;20102;-64
2021/07/27 12:38:53;;;;;;;;;;;;;;;31.05;36.81;99210.28;1873401;76;20098;-63
2021/07/27 12:41:27;;;;;;;;;;;;;;;31.05;37.14;99207.61;1873433;76;20212;-65
2021/07/27 12:44:02;;;;;;;;;;;;;;;30.90;37.44;99210.02;1892780;76;20211;-64
2021/07/27 12:46:37;;;;;;;;;;;;;;;30.86;37.46;99203.17;1892765;76;20212;-65
2021/07/27 12:49:16;;;;;;;;;;;;;;;30.85;38.01;99190.34;1892788;76;20262;-63
2021/07/27 12:51:51;;;;;;;;;;;;;;;30.86;37.71;99196.52;1873390;76;20101;-64
2021/07/27 12:54:26;;;;;;;;;;;;;;;30.82;37.87;99195.88;1873385;76;20094;-64
2021/07/27 12:57:02;;;;;;;;;;;;;;;30.84;37.97;99189.98;1873327;76;20098;-63
2021/07/27 13:00:06;;;;;;;;;;;;;;;30.82;38.29;99183.89;1872512;76;20220;-66
2021/07/27 13:02:41;;;;;;;;;;;;;;;30.85;37.95;99190.34;1892772;76;20359;-65
2021/07/27 13:05:16;;;;;;;;;;;;;;;30.86;38.34;99181.41;1873330;76;20189;-65
2021/07/27 13:07:53;;;;;;;;;;;;;;;30.82;38.27;99169.72;1873500;76;20208;-64
2021/07/27 13:10:54;;;;;;;;;;;;;;;30.87;38.12;99156.45;1892755;76;20379;-65
2021/07/27 13:13:29;;;;;;;;;;;;;;;30.81;37.79;99163.52;1873351;76;20094;-64
2021/07/27 13:16:04;;;;;;;;;;;;;;;30.70;37.84;99147.40;1892764;76;20239;-63
2021/07/27 13:18:46;;;;;;;;;;;;;;;30.63;38.27;99155.44;1872581;76;20471;-64
2021/07/27 13:21:21;;;;;;;;;;;;;;;30.50;38.30;99134.12;1873390;76;20098;-65
2021/07/27 13:23:56;;;;;;;;;;;;;;;30.44;38.58;99139.87;1873452;76;20212;-64
2021/07/27 13:26:32;;;;;;;;;;;;;;;30.39;38.22;99134.86;1873281;76;20101;-62
2021/07/27 13:29:08;;;;;;;;;;;;;;;30.37;38.53;99139.91;1873267;76;20101;-65
2021/07/27 13:31:42;;;;;;;;;;;;;;;30.33;38.41;99120.64;1873425;76;20212;-65
2021/07/27 13:34:20;;;;;;;;;;;;;;;30.35;38.46;99132.02;1873274;76;20101;-63
2021/07/27 13:36:54;;;;;;;;;;;;;;;30.41;38.81;99124.96;1892752;76;20208;-65
2021/07/27 13:39:28;;;;;;;;;;;;;;;30.49;38.13;99118.63;1892780;76;20354;-63
2021/07/27 13:42:03;;;;;;;;;;;;;;;30.59;37.87;99116.67;1873421;76;20447;-65
2021/07/27 13:44:37;;;;;;;;;;;;;;;30.70;37.58;99111.44;1873449;76;20212;-63
2021/07/27 13:47:12;;;;;;;;;;;;;;;30.70;37.29;99111.44;1837828;77;20461;-65
2021/07/27 13:49:47;;;;;;;;;;;;;;;30.73;37.39;99116.55;1873378;76;20098;-63
2021/07/27 13:52:24;;;;;;;;;;;;;;;30.67;37.80;99115.66;1873450;76;20176;-63
2021/07/27 13:55:06;;;;;;;;;;;;;;;30.70;37.58;99120.76;1872468;76;20102;-64
2021/07/27 13:57:41;;;;;;;;;;;;;;;30.83;37.72;99097.64;1873444;76;20093;-66
2021/07/27 14:00:19;;;;;;;;;;;;;;;31.01;38.08;99113.30;1873362;76;20097;-64
2021/07/27 14:02:53;;;;;;;;;;;;;;;31.07;37.59;99104.89;1873465;76;20461;-65
2021/07/27 14:05:27;;;;;;;;;;;;;;;31.17;37.27;99103.72;1873442;76;20097;-65
2021/07/27 14:08:04;;;;;;;;;;;;;;;31.35;36.53;99077.92;1892778;76;20097;-65
2021/07/27 14:10:38;;;;;;;;;;;;;;;31.50;36.34;99093.81;1873441;76;20097;-64
2021/07/27 14:13:32;;;;;;;;;;;;;;;31.60;36.01;99081.50;1873398;76;20355;-64
2021/07/27 14:16:13;;;;;;;;;;;;;;;31.62;36.59;99088.88;1872648;76;20204;-63
2021/07/27 14:18:54;;;;;;;;;;;;;;;31.55;36.30;99084.98;1892723;76;20211;-65